createdAt,value
2023-05-05T00:02:09.701Z,10.91
2023-05-05T00:04:37.005Z,10.88
2023-05-05T00:07:04.414Z,10.84
2023-05-05T00:09:31.832Z,10.82
2023-05-05T00:12:05.534Z,10.81
2023-05-05T00:14:33.471Z,10.81
2023-05-05T00:17:01.006Z,10.80
2023-05-05T00:19:28.269Z,10.80
2023-05-05T00:21:55.891Z,10.77
2023-05-05T00:24:23.714Z,10.75
2023-05-05T00:26:51.424Z,10.72
2023-05-05T00:29:19.060Z,10.70
2023-05-05T00:31:46.596Z,10.70
2023-05-05T00:34:13.820Z,10.66
2023-05-05T00:36:41.665Z,10.61
2023-05-05T00:39:08.996Z,10.58
2023-05-05T00:41:37.016Z,10.53
2023-05-05T00:44:04.680Z,10.48
2023-05-05T00:46:32.139Z,10.46
2023-05-05T00:49:01.026Z,10.44
2023-05-05T00:51:28.454Z,10.43
2023-05-05T00:53:55.817Z,10.41
2023-05-05T00:56:24.772Z,10.40
2023-05-05T00:58:52.381Z,10.40
2023-05-05T01:01:20.426Z,10.39
2023-05-05T01:03:47.962Z,10.36
2023-05-05T01:06:44.230Z,10.36
2023-05-05T01:09:26.485Z,10.33
2023-05-05T01:12:02.428Z,10.31
2023-05-05T01:14:41.067Z,10.28
2023-05-05T01:17:17.230Z,10.26
2023-05-05T01:20:04.682Z,10.20
2023-05-05T01:22:38.451Z,10.15
2023-05-05T01:25:24.789Z,10.10
2023-05-05T01:28:00.041Z,10.05
2023-05-05T01:30:46.519Z,10.01
2023-05-05T01:33:15.764Z,9.99
2023-05-05T01:35:46.048Z,9.98
2023-05-05T01:38:25.198Z,9.96
2023-05-05T01:41:01.025Z,9.95
2023-05-05T01:43:29.797Z,9.93
2023-05-05T01:45:57.295Z,9.89
2023-05-05T01:48:24.790Z,9.85
2023-05-05T01:50:52.625Z,9.80
2023-05-05T01:53:19.860Z,9.78
2023-05-05T01:55:47.218Z,9.78
2023-05-05T01:58:15.011Z,9.80
2023-05-05T02:00:42.893Z,9.81
2023-05-05T02:03:11.208Z,9.81
2023-05-05T02:05:39.263Z,9.82
2023-05-05T02:08:06.767Z,9.83
2023-05-05T02:10:34.076Z,9.84
2023-05-05T02:13:02.628Z,9.86
2023-05-05T02:15:30.244Z,9.86
2023-05-05T02:17:57.698Z,9.88
2023-05-05T02:20:25.636Z,9.92
2023-05-05T02:22:54.169Z,9.95
2023-05-05T02:25:23.319Z,9.96
2023-05-05T02:27:50.500Z,9.98
2023-05-05T02:30:18.508Z,10.01
2023-05-05T02:32:53.536Z,10.03
2023-05-05T02:35:22.977Z,10.02
2023-05-05T02:38:02.880Z,10.02
2023-05-05T02:40:34.473Z,10.03
2023-05-05T02:43:06.049Z,10.06
2023-05-05T02:45:33.861Z,10.09
2023-05-05T02:48:04.660Z,10.11
2023-05-05T02:50:34.548Z,10.14
2023-05-05T02:53:11.311Z,10.19
2023-05-05T02:56:07.456Z,10.24
2023-05-05T02:58:47.793Z,10.28
2023-05-05T03:01:43.713Z,10.31
2023-05-05T03:04:15.971Z,10.36
2023-05-05T03:06:49.154Z,10.40
2023-05-05T03:09:34.312Z,10.44
2023-05-05T03:12:06.198Z,10.49
2023-05-05T03:14:41.863Z,10.55
2023-05-05T03:17:11.519Z,10.62
2023-05-05T03:19:41.868Z,10.71
2023-05-05T03:22:09.510Z,10.78
2023-05-05T03:24:37.869Z,10.88
2023-05-05T03:27:08.282Z,10.95
2023-05-05T03:29:38.198Z,11.04
2023-05-05T03:32:08.705Z,11.14
2023-05-05T03:34:38.024Z,11.21
2023-05-05T03:37:06.083Z,11.29
2023-05-05T03:39:33.521Z,11.38
2023-05-05T03:42:01.288Z,11.47
2023-05-05T03:44:31.207Z,11.59
2023-05-05T03:46:58.615Z,11.68
2023-05-05T03:49:27.002Z,11.80
2023-05-05T03:51:54.592Z,11.92
2023-05-05T03:54:21.938Z,12.02
2023-05-05T03:56:49.172Z,12.14
2023-05-05T03:59:17.464Z,12.27
2023-05-05T04:01:46.822Z,12.38
2023-05-05T04:04:18.109Z,12.47
2023-05-05T04:06:48.084Z,12.55
2023-05-05T04:09:20.634Z,12.61
2023-05-05T04:11:48.089Z,12.68
2023-05-05T04:14:15.886Z,12.76
2023-05-05T04:16:43.356Z,12.84
2023-05-05T04:19:13.321Z,12.93
2023-05-05T04:21:40.835Z,13.02
2023-05-05T04:24:08.253Z,13.12
2023-05-05T04:26:36.353Z,13.20
2023-05-05T04:29:03.820Z,13.27
2023-05-05T04:31:32.395Z,13.32
2023-05-05T04:34:00.082Z,13.38
2023-05-05T04:36:28.586Z,13.43
2023-05-05T04:38:56.948Z,13.49
2023-05-05T04:41:30.020Z,13.54
2023-05-05T04:43:58.054Z,13.61
2023-05-05T04:46:26.076Z,13.67
2023-05-05T04:48:53.661Z,13.73
2023-05-05T04:51:21.076Z,13.80
2023-05-05T04:53:48.498Z,13.88
2023-05-05T04:56:16.055Z,13.97
2023-05-05T04:58:43.542Z,14.05
2023-05-05T05:01:10.966Z,14.14
2023-05-05T05:03:39.998Z,14.21
2023-05-05T05:06:08.550Z,14.26
2023-05-05T05:08:36.745Z,14.31
2023-05-05T05:11:04.119Z,14.34
2023-05-05T05:13:31.689Z,14.35
2023-05-05T05:15:58.960Z,14.37
2023-05-05T05:18:26.520Z,14.38
2023-05-05T05:20:54.707Z,14.37
2023-05-05T05:23:22.064Z,14.35
2023-05-05T05:25:49.409Z,14.33
2023-05-05T05:28:17.509Z,14.31
2023-05-05T05:30:49.038Z,14.30
2023-05-05T05:33:16.577Z,14.27
2023-05-05T05:35:44.546Z,14.24
2023-05-05T05:38:12.452Z,14.24
2023-05-05T05:40:39.821Z,14.27
2023-05-05T05:43:07.121Z,14.29
2023-05-05T05:45:34.533Z,14.33
2023-05-05T05:48:02.666Z,14.38
2023-05-05T05:50:30.584Z,14.41
2023-05-05T05:52:58.897Z,14.47
2023-05-05T05:55:26.649Z,14.54
2023-05-05T05:57:54.465Z,14.63
2023-05-05T06:00:22.296Z,14.78
2023-05-05T06:02:53.129Z,14.99
2023-05-05T06:05:23.039Z,15.24
2023-05-05T06:07:51.010Z,15.43
2023-05-05T06:10:28.003Z,15.55
2023-05-05T06:13:01.300Z,15.66
2023-05-05T06:15:29.426Z,15.82
2023-05-05T06:17:57.673Z,15.99
2023-05-05T06:20:25.332Z,16.14
2023-05-05T06:22:52.798Z,16.31
2023-05-05T06:25:20.518Z,16.47
2023-05-05T06:27:49.186Z,16.65
2023-05-05T06:30:17.438Z,16.86
2023-05-05T06:32:44.925Z,17.03
2023-05-05T06:35:12.502Z,17.17
2023-05-05T06:37:40.154Z,17.29
2023-05-05T06:40:09.014Z,17.45
2023-05-05T06:42:36.801Z,17.60
2023-05-05T06:45:05.409Z,17.75
2023-05-05T06:47:32.727Z,17.88
2023-05-05T06:50:00.268Z,18.01
2023-05-05T06:52:27.627Z,18.16
2023-05-05T06:54:54.840Z,18.28
2023-05-05T06:57:22.165Z,18.39
2023-05-05T06:59:49.693Z,18.51
2023-05-05T07:02:17.150Z,18.61
2023-05-05T07:04:44.338Z,18.70
2023-05-05T07:07:12.049Z,18.82
2023-05-05T07:09:39.498Z,18.92
2023-05-05T07:12:07.423Z,19.02
2023-05-05T07:14:34.727Z,19.09
2023-05-05T07:17:02.272Z,19.18
2023-05-05T07:19:29.646Z,19.27
2023-05-05T07:21:57.166Z,19.34
2023-05-05T07:24:24.674Z,19.44
2023-05-05T07:26:52.067Z,19.53
2023-05-05T07:29:19.388Z,19.61
2023-05-05T07:31:46.764Z,19.63
2023-05-05T07:34:14.144Z,19.70
2023-05-05T07:36:41.932Z,19.81
2023-05-05T07:39:09.544Z,19.89
2023-05-05T07:41:37.258Z,19.91
2023-05-05T07:44:04.853Z,19.96
2023-05-05T07:46:32.233Z,20.02
2023-05-05T07:48:59.724Z,20.03
2023-05-05T07:51:27.847Z,20.06
2023-05-05T07:53:55.963Z,20.17
2023-05-05T07:56:23.369Z,20.28
2023-05-05T07:58:51.081Z,20.37
2023-05-05T08:01:18.641Z,20.47
2023-05-05T08:03:46.416Z,20.54
2023-05-05T08:06:16.664Z,20.59
2023-05-05T08:08:43.905Z,20.66
2023-05-05T08:11:11.326Z,20.77
2023-05-05T08:13:39.400Z,20.89
2023-05-05T08:16:07.448Z,20.97
2023-05-05T08:18:38.146Z,21.03
2023-05-05T08:21:08.746Z,21.15
2023-05-05T08:23:36.423Z,21.32
2023-05-05T08:26:04.713Z,21.45
2023-05-05T08:28:36.696Z,21.55
2023-05-05T08:31:05.839Z,21.64
2023-05-05T08:33:33.321Z,21.72
2023-05-05T08:36:00.761Z,21.78
2023-05-05T08:38:28.524Z,21.83
2023-05-05T08:40:56.336Z,21.90
2023-05-05T08:43:24.438Z,21.93
2023-05-05T08:45:52.299Z,21.98
2023-05-05T08:48:22.955Z,22.04
2023-05-05T08:50:57.410Z,22.13
2023-05-05T08:53:36.181Z,22.16
2023-05-05T08:56:03.748Z,22.26
2023-05-05T08:58:33.678Z,22.44
2023-05-05T09:01:05.722Z,22.54
2023-05-05T09:03:33.733Z,22.61
2023-05-05T09:06:03.322Z,22.70
2023-05-05T09:08:31.051Z,22.82
2023-05-05T09:10:58.533Z,22.94
2023-05-05T09:13:25.984Z,23.05
2023-05-05T09:15:53.425Z,23.13
2023-05-05T09:18:21.153Z,23.14
2023-05-05T09:20:48.797Z,23.07
2023-05-05T09:23:20.724Z,23.04
2023-05-05T09:26:02.491Z,23.15
2023-05-05T09:28:29.884Z,23.31
2023-05-05T09:31:11.880Z,23.43
2023-05-05T09:33:43.368Z,23.53
2023-05-05T09:36:11.885Z,23.61
2023-05-05T09:38:39.426Z,23.63
2023-05-05T09:41:06.936Z,23.64
2023-05-05T09:43:50.027Z,23.67
2023-05-05T09:46:17.964Z,23.72
2023-05-05T09:48:45.413Z,23.63
2023-05-05T09:51:12.902Z,23.52
2023-05-05T09:53:41.058Z,23.50
2023-05-05T09:56:08.480Z,23.48
2023-05-05T09:58:36.002Z,23.40
2023-05-05T10:01:03.370Z,23.32
2023-05-05T10:03:30.999Z,23.25
2023-05-05T10:06:00.078Z,23.28
2023-05-05T10:08:29.739Z,23.49
2023-05-05T10:10:59.816Z,23.74
2023-05-05T10:13:27.245Z,23.96
2023-05-05T10:15:56.900Z,24.21
2023-05-05T10:18:25.936Z,24.51
2023-05-05T10:21:01.337Z,24.63
2023-05-05T10:23:39.650Z,24.49
2023-05-05T10:26:07.769Z,24.39
2023-05-05T10:28:42.378Z,24.44
2023-05-05T10:31:47.282Z,24.59
2023-05-05T10:34:25.473Z,24.68
2023-05-05T10:36:55.327Z,24.68
2023-05-05T10:39:22.808Z,24.68
2023-05-05T10:41:50.524Z,24.73
2023-05-05T10:44:17.933Z,24.78
2023-05-05T10:46:45.647Z,24.84
2023-05-05T10:49:18.050Z,24.92
2023-05-05T10:52:31.114Z,25.02
2023-05-05T10:55:15.269Z,25.13
2023-05-05T10:57:45.058Z,25.25
2023-05-05T11:00:38.607Z,25.42
2023-05-05T11:03:18.168Z,25.56
2023-05-05T11:06:04.567Z,25.67
2023-05-05T11:08:32.835Z,25.80
2023-05-05T11:11:00.850Z,25.88
2023-05-05T11:13:28.282Z,25.99
2023-05-05T11:15:56.223Z,26.07
2023-05-05T11:18:44.677Z,26.13
2023-05-05T11:21:15.946Z,26.06
2023-05-05T11:23:47.541Z,25.97
2023-05-05T11:26:15.231Z,26.04
2023-05-05T11:29:12.263Z,26.06
2023-05-05T11:31:39.875Z,26.08
2023-05-05T11:34:29.783Z,26.08
2023-05-05T11:37:04.220Z,26.14
2023-05-05T11:39:53.422Z,26.27
2023-05-05T11:42:25.981Z,26.38
2023-05-05T11:44:53.767Z,26.57
2023-05-05T11:47:21.394Z,26.62
2023-05-05T11:49:49.430Z,26.54
2023-05-05T11:52:16.943Z,26.52
2023-05-05T11:54:49.144Z,26.54
2023-05-05T11:57:21.225Z,26.59
2023-05-05T11:59:58.719Z,26.62
2023-05-05T12:02:28.007Z,26.52
2023-05-05T12:04:56.341Z,26.34
2023-05-05T12:07:26.770Z,26.05
2023-05-05T12:09:54.221Z,25.73
2023-05-05T12:12:21.771Z,25.54
2023-05-05T12:14:53.310Z,25.49
2023-05-05T12:17:23.677Z,25.53
2023-05-05T12:19:52.413Z,25.70
2023-05-05T12:22:24.715Z,25.94
2023-05-05T12:24:56.548Z,26.19
2023-05-05T12:27:28.238Z,26.43
2023-05-05T12:29:56.803Z,26.66
2023-05-05T12:32:26.083Z,26.88
2023-05-05T12:34:54.679Z,27.04
2023-05-05T12:37:22.469Z,27.15
2023-05-05T12:39:50.646Z,27.25
2023-05-05T12:42:18.186Z,27.35
2023-05-05T12:44:46.872Z,27.44
2023-05-05T12:47:14.734Z,27.48
2023-05-05T12:49:51.832Z,27.59
2023-05-05T12:52:19.506Z,27.74
2023-05-05T12:54:55.058Z,27.90
2023-05-05T12:57:23.368Z,28.09
2023-05-05T12:59:51.550Z,28.24
2023-05-05T13:02:19.481Z,28.34
2023-05-05T13:04:51.595Z,28.31
2023-05-05T13:07:20.297Z,28.14
2023-05-05T13:09:48.741Z,27.98
2023-05-05T13:12:17.838Z,27.86
2023-05-05T13:14:45.616Z,27.94
2023-05-05T13:17:13.672Z,28.25
2023-05-05T13:19:46.745Z,28.56
2023-05-05T13:22:14.371Z,28.76
2023-05-05T13:24:50.779Z,28.80
2023-05-05T13:27:19.980Z,28.69
2023-05-05T13:29:47.835Z,28.72
2023-05-05T13:32:15.536Z,28.97
2023-05-05T13:34:44.328Z,29.19
2023-05-05T13:37:11.805Z,29.31
2023-05-05T13:39:39.250Z,29.25
2023-05-05T13:42:06.684Z,29.07
2023-05-05T13:44:35.578Z,29.02
2023-05-05T13:47:03.254Z,29.04
2023-05-05T13:49:30.905Z,28.91
2023-05-05T13:51:58.842Z,28.57
2023-05-05T13:54:26.262Z,28.41
2023-05-05T13:56:53.602Z,28.49
2023-05-05T13:59:22.052Z,28.71
2023-05-05T14:01:49.643Z,28.94
2023-05-05T14:04:17.145Z,29.02
2023-05-05T14:06:44.646Z,28.85
2023-05-05T14:09:12.112Z,28.68
2023-05-05T14:11:39.519Z,28.56
2023-05-05T14:14:07.056Z,28.71
2023-05-05T14:16:34.590Z,29.03
2023-05-05T14:19:02.062Z,29.25
2023-05-05T14:21:29.385Z,29.23
2023-05-05T14:23:56.915Z,29.20
2023-05-05T14:26:24.445Z,29.38
2023-05-05T14:28:51.947Z,29.62
2023-05-05T14:31:19.525Z,29.78
2023-05-05T14:33:46.977Z,29.88
2023-05-05T14:36:14.518Z,29.90
2023-05-05T14:38:43.187Z,29.96
2023-05-05T14:41:11.108Z,29.82
2023-05-05T14:43:38.674Z,29.59
2023-05-05T14:46:07.522Z,29.64
2023-05-05T14:48:37.845Z,29.82
2023-05-05T14:51:07.978Z,29.92
2023-05-05T14:53:36.131Z,29.71
2023-05-05T14:56:04.275Z,29.39
2023-05-05T14:58:32.299Z,29.10
2023-05-05T15:01:00.907Z,29.02
2023-05-05T15:03:28.504Z,29.20
2023-05-05T15:05:56.416Z,29.48
2023-05-05T15:08:23.703Z,29.75
2023-05-05T15:10:51.139Z,29.96
2023-05-05T15:13:19.204Z,30.17
2023-05-05T15:15:47.428Z,30.31
2023-05-05T15:18:14.958Z,30.38
2023-05-05T15:20:42.476Z,30.36
2023-05-05T15:23:10.016Z,30.33
2023-05-05T15:25:37.609Z,30.34
2023-05-05T15:28:05.387Z,30.40
2023-05-05T15:30:32.954Z,30.48
2023-05-05T15:33:00.823Z,30.29
2023-05-05T15:35:28.311Z,29.66
2023-05-05T15:37:55.920Z,28.85
2023-05-05T15:40:23.594Z,28.09
2023-05-05T15:42:51.637Z,27.55
2023-05-05T15:45:19.465Z,27.32
2023-05-05T15:47:47.071Z,27.18
2023-05-05T15:50:14.597Z,27.01
2023-05-05T15:52:42.559Z,26.74
2023-05-05T15:55:10.774Z,26.46
2023-05-05T15:57:40.577Z,26.18
2023-05-05T16:00:10.965Z,25.91
2023-05-05T16:02:38.542Z,25.69
2023-05-05T16:05:07.111Z,25.47
2023-05-05T16:07:34.859Z,25.21
2023-05-05T16:10:02.828Z,24.93
2023-05-05T16:12:32.780Z,24.69
2023-05-05T16:15:02.780Z,24.40
2023-05-05T16:17:30.456Z,24.11
2023-05-05T16:19:58.178Z,23.84
2023-05-05T16:22:25.874Z,23.73
2023-05-05T16:24:53.273Z,23.72
2023-05-05T16:27:20.707Z,23.69
2023-05-05T16:29:48.079Z,23.56
2023-05-05T16:32:15.629Z,23.39
2023-05-05T16:34:43.143Z,23.21
2023-05-05T16:37:10.532Z,23.01
2023-05-05T16:39:40.473Z,22.78
2023-05-05T16:42:08.137Z,22.52
2023-05-05T16:44:35.459Z,22.23
2023-05-05T16:47:02.765Z,21.90
2023-05-05T16:49:30.333Z,21.51
2023-05-05T16:51:57.649Z,21.13
2023-05-05T16:54:25.080Z,20.79
2023-05-05T16:56:52.686Z,20.46
2023-05-05T16:59:20.200Z,20.16
2023-05-05T17:01:47.720Z,19.87
2023-05-05T17:04:15.367Z,19.57
2023-05-05T17:06:42.767Z,19.37
2023-05-05T17:09:10.407Z,19.21
2023-05-05T17:11:37.785Z,19.04
2023-05-05T17:14:05.198Z,18.86
2023-05-05T17:16:33.093Z,18.70
2023-05-05T17:19:00.753Z,18.57
2023-05-05T17:21:29.455Z,18.45
2023-05-05T17:23:56.784Z,18.34
2023-05-05T17:26:24.249Z,18.23
2023-05-05T17:28:52.021Z,18.11
2023-05-05T17:31:19.568Z,18.01
2023-05-05T17:33:47.029Z,17.91
2023-05-05T17:36:14.563Z,17.79
2023-05-05T17:38:42.152Z,17.70
2023-05-05T17:41:09.581Z,17.60
2023-05-05T17:43:36.954Z,17.52
2023-05-05T17:46:04.496Z,17.43
2023-05-05T17:48:31.969Z,17.35
2023-05-05T17:50:59.647Z,17.27
2023-05-05T17:53:27.578Z,17.21
2023-05-05T17:55:55.363Z,17.15
2023-05-05T17:58:22.815Z,17.05
2023-05-05T18:00:51.159Z,16.97
2023-05-05T18:03:18.996Z,16.89
2023-05-05T18:05:46.614Z,16.80
2023-05-05T18:08:14.339Z,16.72
2023-05-05T18:10:42.329Z,16.64
2023-05-05T18:13:09.872Z,16.56
2023-05-05T18:15:37.341Z,16.49
2023-05-05T18:18:05.135Z,16.41
2023-05-05T18:20:32.542Z,16.33
2023-05-05T18:23:02.351Z,16.26
2023-05-05T18:25:29.897Z,16.21
2023-05-05T18:27:57.440Z,16.16
2023-05-05T18:30:25.056Z,16.11
2023-05-05T18:32:52.689Z,16.03
2023-05-05T18:35:21.648Z,15.97
2023-05-05T18:37:50.119Z,15.90
2023-05-05T18:40:17.719Z,15.83
2023-05-05T18:42:45.135Z,15.75
2023-05-05T18:45:12.508Z,15.66
2023-05-05T18:47:39.986Z,15.61
2023-05-05T18:50:08.898Z,15.55
2023-05-05T18:52:36.326Z,15.50
2023-05-05T18:55:04.030Z,15.45
2023-05-05T18:57:31.481Z,15.42
2023-05-05T18:59:58.865Z,15.38
2023-05-05T19:02:26.155Z,15.35
2023-05-05T19:04:53.679Z,15.30
2023-05-05T19:07:34.993Z,15.27
2023-05-05T19:10:07.093Z,15.23
2023-05-05T19:12:34.731Z,15.19
2023-05-05T19:15:02.154Z,15.16
2023-05-05T19:17:29.525Z,15.13
2023-05-05T19:19:57.391Z,15.10
2023-05-05T19:22:43.068Z,15.07
2023-05-05T19:25:10.916Z,15.02
2023-05-05T19:27:38.880Z,14.96
2023-05-05T19:30:09.146Z,14.91
2023-05-05T19:32:37.755Z,14.87
2023-05-05T19:35:07.032Z,14.82
2023-05-05T19:37:34.496Z,14.78
2023-05-05T19:40:02.138Z,14.74
2023-05-05T19:42:29.624Z,14.71
2023-05-05T19:44:57.306Z,14.68
2023-05-05T19:47:24.769Z,14.64
2023-05-05T19:49:52.215Z,14.60
2023-05-05T19:52:22.842Z,14.58
2023-05-05T19:54:50.300Z,14.57
2023-05-05T19:57:17.903Z,14.55
2023-05-05T19:59:47.365Z,14.54
2023-05-05T20:02:17.284Z,14.51
2023-05-05T20:04:44.626Z,14.50
2023-05-05T20:07:12.008Z,14.48
2023-05-05T20:09:39.637Z,14.46
2023-05-05T20:12:07.504Z,14.46
2023-05-05T20:14:34.921Z,14.43
2023-05-05T20:17:02.367Z,14.39
2023-05-05T20:19:29.765Z,14.34
2023-05-05T20:21:57.360Z,14.28
2023-05-05T20:24:24.851Z,14.23
2023-05-05T20:26:52.304Z,14.16
2023-05-05T20:29:20.536Z,14.10
2023-05-05T20:31:48.663Z,14.04
2023-05-05T20:34:15.879Z,13.98
2023-05-05T20:36:43.560Z,13.91
2023-05-05T20:39:15.504Z,13.86
2023-05-05T20:41:43.088Z,13.79
2023-05-05T20:44:10.662Z,13.72
2023-05-05T20:46:38.083Z,13.65
2023-05-05T20:49:05.743Z,13.59
2023-05-05T20:51:35.246Z,13.52
2023-05-05T20:54:02.913Z,13.46
2023-05-05T20:56:30.461Z,13.40
2023-05-05T20:58:57.800Z,13.36
2023-05-05T21:01:25.242Z,13.31
2023-05-05T21:03:53.179Z,13.26
2023-05-05T21:06:20.753Z,13.22
2023-05-05T21:08:48.052Z,13.15
2023-05-05T21:11:15.366Z,13.09
2023-05-05T21:13:42.816Z,13.03
2023-05-05T21:16:10.435Z,12.96
2023-05-05T21:18:37.872Z,12.90
2023-05-05T21:21:05.349Z,12.84
2023-05-05T21:23:32.881Z,12.78
2023-05-05T21:26:00.485Z,12.72
2023-05-05T21:28:27.924Z,12.68
2023-05-05T21:31:19.788Z,12.66
2023-05-05T21:33:42.955Z,12.63
2023-05-05T21:36:10.252Z,12.59
2023-05-05T21:38:37.848Z,12.55
2023-05-05T21:41:05.408Z,12.52
2023-05-05T21:43:32.699Z,12.47
2023-05-05T21:46:04.518Z,12.44
2023-05-05T21:48:32.808Z,12.40
2023-05-05T21:51:01.238Z,12.37
2023-05-05T21:53:28.605Z,12.33
2023-05-05T21:55:56.053Z,12.29
2023-05-05T21:58:25.123Z,12.26
2023-05-05T22:00:52.764Z,12.20
2023-05-05T22:03:20.158Z,12.16
2023-05-05T22:05:47.680Z,12.13
2023-05-05T22:08:15.188Z,12.08
2023-05-05T22:10:42.704Z,12.04
2023-05-05T22:13:13.162Z,12.00
2023-05-05T22:15:46.593Z,11.98
2023-05-05T22:18:15.561Z,11.95
2023-05-05T22:20:43.625Z,11.91
2023-05-05T22:23:10.971Z,11.89
2023-05-05T22:25:38.444Z,11.87
2023-05-05T22:28:06.024Z,11.86
2023-05-05T22:30:33.516Z,11.84
2023-05-05T22:33:01.144Z,11.83
2023-05-05T22:35:28.486Z,11.82
2023-05-05T22:37:56.097Z,11.79
2023-05-05T22:40:23.676Z,11.75
2023-05-05T22:42:51.262Z,11.71
2023-05-05T22:45:19.136Z,11.67
2023-05-05T22:47:48.914Z,11.64
2023-05-05T22:50:16.324Z,11.62
2023-05-05T22:52:43.604Z,11.60
2023-05-05T22:55:12.934Z,11.58
2023-05-05T22:57:40.853Z,11.54
2023-05-05T23:00:09.231Z,11.47
2023-05-05T23:02:37.451Z,11.40
2023-05-05T23:05:05.178Z,11.33
2023-05-05T23:07:32.818Z,11.25
2023-05-05T23:10:00.278Z,11.17
2023-05-05T23:12:27.594Z,11.10
2023-05-05T23:14:54.911Z,11.03
2023-05-05T23:17:22.405Z,10.98
2023-05-05T23:19:49.802Z,10.93
2023-05-05T23:22:17.229Z,10.89
2023-05-05T23:24:44.736Z,10.84
2023-05-05T23:27:15.059Z,10.80
2023-05-05T23:29:43.041Z,10.78
2023-05-05T23:32:10.649Z,10.74
2023-05-05T23:34:38.207Z,10.71
2023-05-05T23:37:06.460Z,10.67
2023-05-05T23:39:34.744Z,10.62
2023-05-05T23:42:02.121Z,10.60
2023-05-05T23:44:30.107Z,10.58
2023-05-05T23:46:57.434Z,10.56
2023-05-05T23:49:26.515Z,10.53
2023-05-05T23:51:53.892Z,10.52
2023-05-05T23:54:21.634Z,10.51
2023-05-05T23:56:48.893Z,10.49
2023-05-05T23:59:16.401Z,10.46
